KICL

Schenck Field Airport

Clarinda, Iowa, USA
METAR KICL 231115Z AUTO 02005KT 9SM CLR 02/00 A3034 RMK AO2
Observed Flight Rules
Oct-23 @ 11:15 UTC (33 minutes ago) Visual Flight Rules
Wind Visibility Clouds
20° at 5 knots 9 miles
  • Clear skies
Temperatures Readings
Current 2°C / 36°F
Dewpoint 0°C / 32°F
Humidity 87%
Altimeter 30.34" Hg
Pressure 1027 hPa
Elevation 303
METAR KICL 231115Z AUTO 02005KT 9SM CLR 02/00 A3034 RMK AO2
Observed Flight Rules
Oct-23 @ 11:15 UTC
(33 minutes ago)
VFR
Wind Visibility
20° at 5 knots 9 miles
Clouds
  • Clear skies
Temperature Dewpoint
2°C / 36°F 0°C / 32°F
Humidity Altimeter Pressure
87% 30.34" Hg 1027 hPa